Augusta, Montana
Current Conditions -  °F | °C
As of 2:53 AM on Monday 26 Jan 2015 (Local Time) from KGTF Reporting Station
Clear Clear  
Wind Chill: 53°   Ceiling: Unl
Heat Index: 53°   Visibility: 10mi
Dew Point: 26°   Wind: 20mph
Humidity: 35%   Direction: 230°SW
Pressure: 30.05"   Gusts: NA
Location:  47.49°N, 112.4°W
Report Text: KGTF 260953Z 23017KT 10SM CLR 12/M03 A3005 RMK AO2 SLP173 T01171033
Loading
Personal Weather Stations






























Interactive Weather Map New forecast layout! Learn more

10-Day Weather Forecast

Advertisements
Track Severe Weather on mobile